createdAt,value
2022-08-09T00:00:20.446Z,16.00
2022-08-09T00:02:49.069Z,15.77
2022-08-09T00:06:19.162Z,16.05
2022-08-09T00:08:31.272Z,16.30
2022-08-09T00:10:59.995Z,16.05
2022-08-09T00:13:51.391Z,15.77
2022-08-09T00:16:26.460Z,15.90
2022-08-09T00:19:09.484Z,15.63
2022-08-09T00:21:38.408Z,16.42
2022-08-09T00:24:22.775Z,15.93
2022-08-09T00:26:51.347Z,15.43
2022-08-09T00:29:39.665Z,15.52
2022-08-09T00:32:07.517Z,15.70
2022-08-09T00:34:37.236Z,15.35
2022-08-09T00:37:07.884Z,15.43
2022-08-09T00:40:13.363Z,15.65
2022-08-09T00:44:16.717Z,15.07
2022-08-09T00:45:14.850Z,15.52
2022-08-09T00:47:45.430Z,15.70
2022-08-09T00:50:18.499Z,15.65
2022-08-09T00:52:46.054Z,16.02
2022-08-09T00:55:16.880Z,15.20
2022-08-09T00:58:04.978Z,15.43
2022-08-09T01:00:46.631Z,16.05
2022-08-09T01:03:46.185Z,15.43
2022-08-09T01:06:25.545Z,15.98
2022-08-09T01:09:54.896Z,16.17
2022-08-09T01:13:00.980Z,16.02
2022-08-09T01:15:37.168Z,15.55
2022-08-09T01:18:14.276Z,15.85
2022-08-09T01:20:44.385Z,16.70
2022-08-09T01:24:03.529Z,16.17
2022-08-09T01:27:07.876Z,15.85
2022-08-09T01:29:56.236Z,15.30
2022-08-09T01:32:34.156Z,15.45
2022-08-09T01:35:37.426Z,15.00
2022-08-09T01:38:15.372Z,14.90
2022-08-09T01:40:52.692Z,15.50
2022-08-09T01:43:47.943Z,15.05
2022-08-09T01:46:53.199Z,14.85
2022-08-09T01:49:24.230Z,14.73
2022-08-09T01:51:54.869Z,15.30
2022-08-09T01:54:50.767Z,14.80
2022-08-09T01:57:21.040Z,14.55
2022-08-09T01:59:52.676Z,15.30
2022-08-09T02:02:31.309Z,14.68
2022-08-09T02:05:05.486Z,14.90
2022-08-09T02:08:38.590Z,14.93
2022-08-09T02:10:51.875Z,15.57
2022-08-09T02:13:25.879Z,14.63
2022-08-09T02:16:04.770Z,14.48
2022-08-09T02:18:34.134Z,15.05
2022-08-09T02:21:11.382Z,14.93
2022-08-09T02:23:49.823Z,15.00
2022-08-09T02:26:24.921Z,15.05
2022-08-09T02:28:59.731Z,15.07
2022-08-09T02:31:38.998Z,14.93
2022-08-09T02:34:13.379Z,14.85
2022-08-09T02:36:49.142Z,14.77
2022-08-09T02:39:34.010Z,14.63
2022-08-09T02:42:10.634Z,14.93
2022-08-09T02:44:43.328Z,14.75
2022-08-09T02:47:14.528Z,15.05
2022-08-09T02:50:01.288Z,14.77
2022-08-09T02:52:38.323Z,14.57
2022-08-09T02:55:20.402Z,14.82
2022-08-09T02:58:00.269Z,14.70
2022-08-09T03:00:57.634Z,14.98
2022-08-09T03:04:12.913Z,14.90
2022-08-09T03:06:15.296Z,14.70
2022-08-09T03:08:47.361Z,14.27
2022-08-09T03:12:04.649Z,14.88
2022-08-09T03:14:10.755Z,14.85
2022-08-09T03:16:44.781Z,14.90
2022-08-09T03:19:14.340Z,13.73
2022-08-09T03:22:03.039Z,14.40
2022-08-09T03:24:42.252Z,15.35
2022-08-09T03:27:21.416Z,14.55
2022-08-09T03:29:57.671Z,14.82
2022-08-09T03:32:37.193Z,14.80
2022-08-09T03:35:24.172Z,14.70
2022-08-09T03:37:55.649Z,14.68
2022-08-09T03:40:25.486Z,14.82
2022-08-09T03:42:58.201Z,14.85
2022-08-09T03:46:03.884Z,14.98
2022-08-09T03:48:12.306Z,14.63
2022-08-09T03:50:46.701Z,15.20
2022-08-09T03:53:16.939Z,14.80
2022-08-09T03:55:48.850Z,14.82
2022-08-09T03:58:21.267Z,14.90
2022-08-09T04:00:49.765Z,14.10
2022-08-09T04:03:24.662Z,15.25
2022-08-09T04:06:04.496Z,14.55
2022-08-09T04:08:32.630Z,15.25
2022-08-09T04:11:01.442Z,14.65
2022-08-09T04:14:37.503Z,14.60
2022-08-09T04:16:19.719Z,15.40
2022-08-09T04:18:50.967Z,15.02
2022-08-09T04:21:18.383Z,14.40
2022-08-09T04:23:53.812Z,14.40
2022-08-09T04:26:24.515Z,14.32
2022-08-09T04:28:54.060Z,14.27
2022-08-09T04:31:26.353Z,14.63
2022-08-09T04:34:04.562Z,13.95
2022-08-09T04:36:33.936Z,14.13
2022-08-09T04:39:03.935Z,14.25
2022-08-09T04:41:33.757Z,14.70
2022-08-09T04:44:14.738Z,14.40
2022-08-09T04:46:58.834Z,14.77
2022-08-09T04:49:53.926Z,13.70
2022-08-09T04:52:26.893Z,14.60
2022-08-09T04:57:24.039Z,14.23
2022-08-09T04:59:56.137Z,14.95
2022-08-09T05:02:30.649Z,15.00
2022-08-09T05:04:57.843Z,14.07
2022-08-09T05:07:31.832Z,15.07
2022-08-09T05:09:59.242Z,14.55
2022-08-09T05:18:39.622Z,14.82
2022-08-09T05:21:24.924Z,14.48
2022-08-09T05:24:01.622Z,14.88
2022-08-09T05:26:36.646Z,15.68
2022-08-09T05:29:17.824Z,15.25
2022-08-09T05:31:56.182Z,14.95
2022-08-09T05:34:31.055Z,15.30
2022-08-09T05:37:06.250Z,15.45
2022-08-09T05:39:42.484Z,14.95
2022-08-09T05:42:20.647Z,15.27
2022-08-09T05:44:58.959Z,15.70
2022-08-09T05:47:30.425Z,15.45
2022-08-09T05:50:34.979Z,15.83
2022-08-09T05:52:53.395Z,15.18
2022-08-09T05:55:24.077Z,14.82
2022-08-09T05:57:57.135Z,15.60
2022-08-09T06:00:30.598Z,15.48
2022-08-09T06:03:01.838Z,14.90
2022-08-09T06:05:56.924Z,15.95
2022-08-09T06:08:19.036Z,15.88
2022-08-09T06:10:47.139Z,15.90
2022-08-09T06:13:20.238Z,14.82
2022-08-09T06:15:52.315Z,15.93
2022-08-09T06:18:24.808Z,15.55
2022-08-09T06:20:58.471Z,15.98
2022-08-09T06:23:59.022Z,14.75
2022-08-09T06:26:20.299Z,15.20
2022-08-09T06:28:47.756Z,14.90
2022-08-09T06:31:15.252Z,15.38
2022-08-09T06:33:48.719Z,15.15
2022-08-09T06:36:20.239Z,15.50
2022-08-09T06:38:54.942Z,15.25
2022-08-09T06:42:07.489Z,14.23
2022-08-09T06:44:18.101Z,14.60
2022-08-09T06:46:48.281Z,14.95
2022-08-09T06:49:22.790Z,14.50
2022-08-09T06:52:02.054Z,13.75
2022-08-09T06:54:29.156Z,14.20
2022-08-09T06:56:56.164Z,14.70
2022-08-09T07:00:53.150Z,14.18
2022-08-09T07:02:10.605Z,14.55
2022-08-09T07:04:37.727Z,14.25
2022-08-09T07:07:05.195Z,14.68
2022-08-09T07:09:55.343Z,14.38
2022-08-09T07:12:20.285Z,14.48
2022-08-09T07:14:50.846Z,13.98
2022-08-09T07:17:20.167Z,14.18
2022-08-09T07:19:50.930Z,14.07
2022-08-09T07:22:42.213Z,13.95
2022-08-09T07:25:10.715Z,14.20
2022-08-09T07:27:43.291Z,14.38
2022-08-09T07:30:21.865Z,14.18
2022-08-09T07:32:52.439Z,14.35
2022-08-09T07:35:19.695Z,13.90
2022-08-09T07:37:49.175Z,13.48
2022-08-09T07:40:20.518Z,14.45
2022-08-09T07:43:00.101Z,14.00
2022-08-09T07:45:38.073Z,14.30
2022-08-09T07:48:28.413Z,14.30
2022-08-09T07:51:09.728Z,13.68
2022-08-09T07:54:04.863Z,14.15
2022-08-09T07:56:30.903Z,14.02
2022-08-09T07:58:59.257Z,13.88
2022-08-09T08:01:34.054Z,14.07
2022-08-09T08:04:03.213Z,13.55
2022-08-09T08:06:31.695Z,13.57
2022-08-09T08:09:04.993Z,14.10
2022-08-09T08:12:10.983Z,13.93
2022-08-09T08:14:24.274Z,14.23
2022-08-09T08:17:07.328Z,14.13
2022-08-09T08:19:35.047Z,14.23
2022-08-09T08:22:02.491Z,14.57
2022-08-09T08:24:34.189Z,13.95
2022-08-09T08:27:07.175Z,13.93
2022-08-09T08:29:48.582Z,13.93
2022-08-09T08:32:19.018Z,14.30
2022-08-09T08:35:02.983Z,14.40
2022-08-09T08:37:41.977Z,14.30
2022-08-09T08:40:18.993Z,14.27
2022-08-09T08:42:47.012Z,14.80
2022-08-09T08:45:16.852Z,14.57
2022-08-09T08:47:46.058Z,13.90
2022-08-09T08:50:18.227Z,14.18
2022-08-09T08:52:59.235Z,14.27
2022-08-09T08:55:28.491Z,14.40
2022-08-09T08:57:59.348Z,14.18
2022-08-09T09:00:34.353Z,14.43
2022-08-09T09:03:08.756Z,14.38
2022-08-09T09:06:00.755Z,14.35
2022-08-09T09:08:40.512Z,14.35
2022-08-09T09:11:17.907Z,14.10
2022-08-09T09:13:57.063Z,14.13
2022-08-09T09:16:33.881Z,14.70
2022-08-09T09:19:37.076Z,14.70
2022-08-09T09:22:02.733Z,14.50
2022-08-09T09:24:43.492Z,14.88
2022-08-09T09:28:04.229Z,14.82
2022-08-09T09:30:19.259Z,15.00
2022-08-09T09:33:15.886Z,15.13
2022-08-09T09:36:11.582Z,14.88
2022-08-09T09:38:53.229Z,14.70
2022-08-09T09:41:23.381Z,14.63
2022-08-09T09:44:12.544Z,14.38
2022-08-09T09:46:42.976Z,15.10
2022-08-09T09:49:18.891Z,14.77
2022-08-09T09:52:05.082Z,14.60
2022-08-09T09:54:48.835Z,14.43
2022-08-09T09:58:03.908Z,14.68
2022-08-09T10:00:26.681Z,14.60
2022-08-09T10:02:53.906Z,14.50
2022-08-09T10:05:27.219Z,14.60
2022-08-09T10:08:28.079Z,14.65
2022-08-09T10:13:42.741Z,14.48
2022-08-09T10:16:57.649Z,14.73
2022-08-09T10:19:00.074Z,14.40
2022-08-09T10:21:28.176Z,14.38
2022-08-09T10:23:57.362Z,14.23
2022-08-09T10:26:26.823Z,14.57
2022-08-09T10:29:22.659Z,14.55
2022-08-09T10:34:33.014Z,14.05
2022-08-09T10:37:01.439Z,14.40
2022-08-09T10:39:29.275Z,14.57
2022-08-09T10:41:56.539Z,14.38
2022-08-09T10:44:28.166Z,14.35
2022-08-09T10:48:19.301Z,14.57
2022-08-09T10:50:58.844Z,14.80
2022-08-09T10:54:12.983Z,14.55
2022-08-09T10:56:42.521Z,14.57
2022-08-09T10:59:31.242Z,13.95
2022-08-09T11:03:13.618Z,14.57
2022-08-09T11:05:24.538Z,14.52
2022-08-09T11:07:56.725Z,14.18
2022-08-09T11:10:54.629Z,14.15
2022-08-09T11:13:50.942Z,14.88
2022-08-09T11:16:35.587Z,14.48
2022-08-09T11:19:09.508Z,14.68
2022-08-09T11:21:56.931Z,14.75
2022-08-09T11:24:57.749Z,14.48
2022-08-09T11:28:09.205Z,14.73
2022-08-09T11:30:38.265Z,14.60
2022-08-09T11:33:17.848Z,15.05
2022-08-09T11:35:50.324Z,14.35
2022-08-09T11:38:35.146Z,14.48
2022-08-09T11:41:15.988Z,14.43
2022-08-09T11:43:49.084Z,14.68
2022-08-09T11:46:18.543Z,14.80
2022-08-09T11:49:00.580Z,14.48
2022-08-09T11:52:56.660Z,14.75
2022-08-09T11:54:28.038Z,14.35
2022-08-09T11:57:47.731Z,14.38
2022-08-09T12:00:28.277Z,14.80
2022-08-09T12:02:57.560Z,14.50
2022-08-09T12:05:42.113Z,14.60
2022-08-09T12:08:19.841Z,14.73
2022-08-09T12:10:57.424Z,14.50
2022-08-09T12:14:10.331Z,14.40
2022-08-09T12:16:53.436Z,14.70
2022-08-09T12:19:30.552Z,14.18
2022-08-09T12:22:02.023Z,14.38
2022-08-09T12:24:30.447Z,14.27
2022-08-09T12:28:58.955Z,14.75
2022-08-09T12:30:04.046Z,14.82
2022-08-09T12:32:43.251Z,15.40
2022-08-09T12:35:16.958Z,14.77
2022-08-09T12:37:51.798Z,14.88
2022-08-09T12:40:27.338Z,14.63
2022-08-09T12:42:55.983Z,14.80
2022-08-09T12:45:32.615Z,15.05
2022-08-09T12:48:07.904Z,14.10
2022-08-09T12:50:39.050Z,14.60
2022-08-09T12:53:34.987Z,14.40
2022-08-09T12:56:34.842Z,14.48
2022-08-09T12:59:11.933Z,13.90
2022-08-09T13:01:49.726Z,14.45
2022-08-09T13:04:36.757Z,14.55
2022-08-09T13:07:19.691Z,14.85
2022-08-09T13:09:55.140Z,14.65
2022-08-09T13:12:23.146Z,14.48
2022-08-09T13:14:54.301Z,14.60
2022-08-09T13:17:58.763Z,14.40
2022-08-09T13:20:18.922Z,14.63
2022-08-09T13:23:01.919Z,14.27
2022-08-09T13:25:42.763Z,14.90
2022-08-09T13:28:18.834Z,14.45
2022-08-09T13:32:12.324Z,14.50
2022-08-09T13:33:55.300Z,14.52
2022-08-09T13:36:39.708Z,14.38
2022-08-09T13:41:17.199Z,13.93
2022-08-09T13:42:06.038Z,14.73
2022-08-09T13:44:42.126Z,14.47
2022-08-09T13:47:27.452Z,14.18
2022-08-09T13:50:12.703Z,14.30
2022-08-09T13:52:47.682Z,14.38
2022-08-09T13:55:15.616Z,14.35
2022-08-09T13:57:56.027Z,14.38
2022-08-09T14:00:28.339Z,14.40
2022-08-09T14:03:03.939Z,14.00
2022-08-09T14:05:58.174Z,14.38
2022-08-09T14:08:28.097Z,14.10
2022-08-09T14:10:55.943Z,14.27
2022-08-09T14:14:16.011Z,14.30
2022-08-09T14:16:15.116Z,14.25
2022-08-09T14:18:45.853Z,14.90
2022-08-09T14:21:20.159Z,14.30
2022-08-09T14:23:54.201Z,14.23
2022-08-09T14:26:32.285Z,14.25
2022-08-09T14:29:03.247Z,13.93
2022-08-09T14:31:35.976Z,14.35
2022-08-09T14:34:30.931Z,13.82
2022-08-09T14:37:09.394Z,14.90
2022-08-09T14:39:47.418Z,14.30
2022-08-09T14:42:30.424Z,14.10
2022-08-09T14:46:40.226Z,15.20
2022-08-09T14:47:49.626Z,14.38
2022-08-09T14:50:23.991Z,13.85
2022-08-09T14:52:51.212Z,15.52
2022-08-09T14:55:19.883Z,14.48
2022-08-09T14:57:48.807Z,14.73
2022-08-09T15:00:16.423Z,14.27
2022-08-09T15:02:47.592Z,15.20
2022-08-09T15:05:19.638Z,15.57
2022-08-09T15:07:56.633Z,15.80
2022-08-09T15:10:26.871Z,14.50
2022-08-09T15:12:55.728Z,14.43
2022-08-09T15:15:23.678Z,14.63
2022-08-09T15:17:53.107Z,14.63
2022-08-09T15:21:57.689Z,14.63
2022-08-09T15:24:01.945Z,15.55
2022-08-09T15:25:58.507Z,14.60
2022-08-09T15:28:27.765Z,15.18
2022-08-09T15:31:10.344Z,14.95
2022-08-09T15:34:17.709Z,14.65
2022-08-09T15:36:30.631Z,14.63
2022-08-09T15:39:01.040Z,14.82
2022-08-09T15:41:31.269Z,15.00
2022-08-09T15:43:59.488Z,15.52
2022-08-09T15:46:32.589Z,15.90
2022-08-09T15:49:21.814Z,16.33
2022-08-09T15:52:03.214Z,17.10
2022-08-09T15:54:49.028Z,15.55
2022-08-09T16:00:13.808Z,14.88
2022-08-09T16:02:48.128Z,15.18
2022-08-09T16:05:22.461Z,15.02
2022-08-09T16:07:50.764Z,18.35
2022-08-09T16:10:55.018Z,15.20
2022-08-09T16:13:18.989Z,14.95
2022-08-09T16:16:10.739Z,14.93
2022-08-09T16:18:44.606Z,15.60
2022-08-09T16:21:17.664Z,15.63
2022-08-09T16:23:58.852Z,15.38
2022-08-09T16:26:35.297Z,15.20
2022-08-09T16:32:12.575Z,15.70
2022-08-09T16:34:55.030Z,15.70
2022-08-09T16:37:50.659Z,15.90
2022-08-09T16:40:12.081Z,15.43
2022-08-09T16:42:45.388Z,15.07
2022-08-09T16:45:14.698Z,15.52
2022-08-09T16:48:42.403Z,15.70
2022-08-09T16:50:34.176Z,16.25
2022-08-09T16:53:02.787Z,15.85
2022-08-09T16:55:58.849Z,15.18
2022-08-09T16:58:21.049Z,15.25
2022-08-09T17:00:48.777Z,15.45
2022-08-09T17:03:21.621Z,14.80
2022-08-09T17:06:07.037Z,14.57
2022-08-09T17:09:00.125Z,14.40
2022-08-09T17:11:40.013Z,14.82
2022-08-09T17:14:08.962Z,15.45
2022-08-09T17:16:54.398Z,14.38
2022-08-09T17:19:21.810Z,14.65
2022-08-09T17:21:55.444Z,14.20
2022-08-09T17:24:30.591Z,14.30
2022-08-09T17:26:58.423Z,13.90
2022-08-09T17:29:31.614Z,13.63
2022-08-09T17:32:05.417Z,14.07
2022-08-09T17:35:04.345Z,13.85
2022-08-09T17:37:21.162Z,13.90
2022-08-09T17:39:53.595Z,13.55
2022-08-09T17:45:16.188Z,13.77
2022-08-09T17:48:02.663Z,14.00
2022-08-09T17:50:37.101Z,13.70
2022-08-09T17:53:19.719Z,13.95
2022-08-09T17:55:53.005Z,13.80
2022-08-09T17:58:26.941Z,14.05
2022-08-09T18:00:56.732Z,14.32
2022-08-09T18:03:30.503Z,14.38
2022-08-09T18:06:01.009Z,13.90
2022-08-09T18:08:29.030Z,13.77
2022-08-09T18:11:02.392Z,14.38
2022-08-09T18:13:38.791Z,14.40
2022-08-09T18:16:09.165Z,14.07
2022-08-09T18:18:43.283Z,14.18
2022-08-09T18:21:22.894Z,14.23
2022-08-09T18:24:09.763Z,14.00
2022-08-09T18:26:46.291Z,14.10
2022-08-09T18:30:39.437Z,14.30
2022-08-09T18:32:02.892Z,14.52
2022-08-09T18:34:31.857Z,14.45
2022-08-09T18:36:59.314Z,14.60
2022-08-09T18:39:32.339Z,14.30
2022-08-09T18:42:08.913Z,14.02
2022-08-09T18:44:37.055Z,15.05
2022-08-09T18:47:09.668Z,14.27
2022-08-09T18:49:43.302Z,13.77
2022-08-09T18:52:16.002Z,14.13
2022-08-09T18:54:52.112Z,13.93
2022-08-09T18:57:22.799Z,13.93
2022-08-09T18:59:56.497Z,14.48
2022-08-09T19:02:32.266Z,14.02
2022-08-09T19:05:20.022Z,14.40
2022-08-09T19:08:03.565Z,14.63
2022-08-09T19:10:39.157Z,14.80
2022-08-09T19:13:20.194Z,14.38
2022-08-09T19:15:50.193Z,14.30
2022-08-09T19:18:33.309Z,14.23
2022-08-09T19:21:05.417Z,14.60
2022-08-09T19:24:33.574Z,14.40
2022-08-09T19:26:31.251Z,14.30
2022-08-09T19:29:15.274Z,14.60
2022-08-09T19:31:49.461Z,14.70
2022-08-09T19:34:23.138Z,14.35
2022-08-09T19:36:56.335Z,14.30
2022-08-09T19:39:29.307Z,14.30
2022-08-09T19:42:14.976Z,14.45
2022-08-09T19:44:49.541Z,14.40
2022-08-09T19:47:23.220Z,14.38
2022-08-09T19:50:09.905Z,14.30
2022-08-09T19:52:49.576Z,14.30
2022-08-09T19:55:30.586Z,14.15
2022-08-09T19:57:58.114Z,14.15
2022-08-09T20:00:25.279Z,14.20
2022-08-09T20:04:26.190Z,14.38
2022-08-09T20:05:46.383Z,14.75
2022-08-09T20:08:16.074Z,14.75
2022-08-09T20:10:52.392Z,14.43
2022-08-09T20:13:21.072Z,14.70
2022-08-09T20:16:32.806Z,14.57
2022-08-09T20:18:35.837Z,14.68
2022-08-09T20:21:03.236Z,14.40
2022-08-09T20:23:38.935Z,14.70
2022-08-09T20:26:07.666Z,14.52
2022-08-09T20:28:47.935Z,14.55
2022-08-09T20:31:16.126Z,14.75
2022-08-09T20:33:44.709Z,14.75
2022-08-09T20:36:12.886Z,14.65
2022-08-09T20:41:35.236Z,14.75
2022-08-09T20:44:06.961Z,14.77
2022-08-09T20:46:43.233Z,14.73
2022-08-09T20:49:16.166Z,15.80
2022-08-09T20:51:44.264Z,14.85
2022-08-09T20:54:12.515Z,15.18
2022-08-09T20:56:40.989Z,15.23
2022-08-09T20:59:08.217Z,15.13
2022-08-09T21:01:50.077Z,14.70
2022-08-09T21:05:51.204Z,14.88
2022-08-09T21:07:11.596Z,14.80
2022-08-09T21:09:56.441Z,15.25
2022-08-09T21:12:32.164Z,15.40
2022-08-09T21:15:01.795Z,15.38
2022-08-09T21:18:21.119Z,15.10
2022-08-09T21:20:22.463Z,15.15
2022-08-09T21:22:54.591Z,14.85
2022-08-09T21:25:44.086Z,15.32
2022-08-09T21:28:33.422Z,15.07
2022-08-09T21:31:17.803Z,15.48
2022-08-09T21:33:52.558Z,15.38
2022-08-09T21:36:27.769Z,15.07
2022-08-09T21:38:57.602Z,15.38
2022-08-09T21:42:05.177Z,15.20
2022-08-09T21:44:32.892Z,15.18
2022-08-09T21:47:07.711Z,15.18
2022-08-09T21:49:39.882Z,15.80
2022-08-09T21:52:17.869Z,15.40
2022-08-09T21:55:03.357Z,15.43
2022-08-09T21:57:39.616Z,15.50
2022-08-09T22:00:34.613Z,15.40
2022-08-09T22:03:05.803Z,15.02
2022-08-09T22:05:41.982Z,15.07
2022-08-09T22:08:14.053Z,15.38
2022-08-09T22:11:50.291Z,15.48
2022-08-09T22:13:34.663Z,15.13
2022-08-09T22:16:07.881Z,15.25
2022-08-09T22:18:54.583Z,15.13
2022-08-09T22:21:24.977Z,16.00
2022-08-09T22:23:59.847Z,15.18
2022-08-09T22:26:35.103Z,15.73
2022-08-09T22:29:07.515Z,15.50
2022-08-09T22:31:37.204Z,15.68
2022-08-09T22:34:14.886Z,15.77
2022-08-09T22:36:46.354Z,15.43
2022-08-09T22:39:46.802Z,15.43
2022-08-09T22:42:03.412Z,15.35
2022-08-09T22:44:32.816Z,15.38
2022-08-09T22:48:10.965Z,15.18
2022-08-09T22:49:52.005Z,15.45
2022-08-09T22:52:19.779Z,15.55
2022-08-09T22:54:47.787Z,15.05
2022-08-09T22:57:15.441Z,15.52
2022-08-09T22:59:56.884Z,15.95
2022-08-09T23:02:25.684Z,15.13
2022-08-09T23:04:55.405Z,15.32
2022-08-09T23:08:23.392Z,15.75
2022-08-09T23:10:32.111Z,15.30
2022-08-09T23:12:59.379Z,15.00
2022-08-09T23:15:28.754Z,15.73
2022-08-09T23:17:56.303Z,15.30
2022-08-09T23:20:25.243Z,15.70
2022-08-09T23:22:52.412Z,15.30
2022-08-09T23:25:19.434Z,14.93
2022-08-09T23:28:11.669Z,15.40
2022-08-09T23:30:33.543Z,15.65
2022-08-09T23:33:00.820Z,15.30
2022-08-09T23:35:27.888Z,15.60
2022-08-09T23:37:54.992Z,15.43
2022-08-09T23:40:22.155Z,15.73
2022-08-09T23:42:49.183Z,16.20
2022-08-09T23:45:36.629Z,15.82
2022-08-09T23:48:08.602Z,15.40
2022-08-09T23:50:36.218Z,15.20
2022-08-09T23:53:03.655Z,15.48
2022-08-09T23:55:32.987Z,15.32
2022-08-09T23:58:10.607Z,15.65
